Time;durP1;ratioP1;P1;durP2;ratioP2;P2;SDS_P1;SDS_P2;PMS_P1;PMS_P2;Temp;Humidity;BMP_temperature;BMP_pressure;BME280_temperature;BME280_humidity;BME280_pressure;Samples;Min_cycle;Max_cycle;Signal;HPM_P1;HPM_P2
2022/02/26 00:01:57;;;;;;;;;29.00;24.75;;;;;5.79;64.82;103073.34;5093715;27;45384;-71
2022/02/26 00:04:23;;;;;;;;;24.25;21.50;;;;;5.74;64.84;103069.78;5095207;27;45348;-71
2022/02/26 00:06:48;;;;;;;;;26.00;18.25;;;;;5.72;64.88;103076.72;5093491;27;45475;-71
2022/02/26 00:09:14;;;;;;;;;22.00;20.00;;;;;5.69;64.90;103071.44;5093472;27;45407;-71
2022/02/26 00:11:39;;;;;;;;;18.25;17.00;;;;;5.67;65.47;103075.78;5093202;27;45654;-72
2022/02/26 00:14:05;;;;;;;;;26.75;20.00;;;;;5.65;65.18;103065.34;5094242;27;45564;-71
2022/02/26 00:16:32;;;;;;;;;22.00;19.50;;;;;5.62;65.86;103065.28;5094387;27;48271;-72
2022/02/26 00:18:58;;;;;;;;;22.50;20.50;;;;;5.65;66.25;103077.50;5093690;27;45289;-71
2022/02/26 00:21:24;;;;;;;;;29.25;26.00;;;;;5.62;66.11;103075.72;5093791;27;45612;-71
2022/02/26 00:23:49;;;;;;;;;34.50;27.75;;;;;5.60;66.80;103071.34;5093359;27;45540;-71
2022/02/26 00:26:16;;;;;;;;;30.75;21.25;;;;;5.59;66.71;103073.06;5092762;27;46005;-72
2022/02/26 00:28:41;;;;;;;;;35.00;26.00;;;;;5.59;66.70;103069.59;5094669;27;45947;-72
2022/02/26 00:31:07;;;;;;;;;24.00;20.75;;;;;5.58;66.59;103067.81;5093225;27;45983;-72
2022/02/26 00:33:32;;;;;;;;;22.25;21.50;;;;;5.57;66.64;103066.94;5093500;27;45535;-71
2022/02/26 00:35:59;;;;;;;;;27.50;21.75;;;;;5.56;67.05;103064.31;5091410;27;46440;-71
2022/02/26 00:38:28;;;;;;;;;26.00;18.50;;;;;5.56;66.85;103069.53;5094217;27;45463;-71
2022/02/26 00:40:53;;;;;;;;;21.50;20.75;;;;;5.57;67.14;103076.50;5094161;27;47908;-71
2022/02/26 00:43:19;;;;;;;;;31.00;18.50;;;;;5.57;67.24;103073.88;5095727;27;45505;-71
2022/02/26 00:45:44;;;;;;;;;31.00;22.00;;;;;5.56;67.10;103079.97;5094986;27;46370;-71
2022/02/26 00:48:10;;;;;;;;;28.50;20.00;;;;;5.57;67.10;103074.75;5091800;27;45367;-71
2022/02/26 00:50:35;;;;;;;;;17.50;14.50;;;;;5.56;67.14;103088.66;5093809;27;45410;-71
2022/02/26 00:53:00;;;;;;;;;27.50;21.50;;;;;5.51;67.07;103077.28;5093714;27;45271;-71
2022/02/26 00:55:26;;;;;;;;;21.75;18.00;;;;;5.48;67.30;103092.88;5095121;27;45998;-71
2022/02/26 00:57:51;;;;;;;;;21.50;16.75;;;;;5.42;67.34;103083.22;5093030;27;45527;-71
2022/02/26 01:00:17;;;;;;;;;22.75;17.00;;;;;5.41;67.48;103089.28;5091127;27;45371;-71
2022/02/26 01:02:42;;;;;;;;;27.50;18.25;;;;;5.30;67.72;103075.22;5093150;27;45515;-71
2022/02/26 01:05:07;;;;;;;;;23.67;19.00;;;;;5.36;67.89;103087.47;5093616;27;45967;-71
2022/02/26 01:07:33;;;;;;;;;21.75;19.75;;;;;5.33;67.73;103080.50;5095182;27;45409;-71
2022/02/26 01:09:58;;;;;;;;;20.00;19.25;;;;;5.31;67.45;103079.56;5090542;27;45725;-71
2022/02/26 01:12:24;;;;;;;;;26.00;20.50;;;;;5.28;67.95;103083.88;5090557;27;45459;-71
2022/02/26 01:14:49;;;;;;;;;37.50;28.25;;;;;5.27;67.72;103087.31;5091652;27;45411;-71
2022/02/26 01:17:17;;;;;;;;;30.00;24.75;;;;;5.23;67.84;103092.50;5093299;27;45430;-70
2022/02/26 01:19:43;;;;;;;;;28.00;21.25;;;;;5.24;68.34;103091.63;5094266;27;45226;-71
2022/02/26 01:22:08;;;;;;;;;30.00;23.00;;;;;5.24;68.69;103098.56;5094116;27;45436;-71
2022/02/26 01:24:34;;;;;;;;;25.75;24.50;;;;;5.26;68.49;103101.19;5092490;27;45298;-71
2022/02/26 01:26:59;;;;;;;;;28.75;26.50;;;;;5.23;68.15;103094.22;5092373;27;45482;-71
2022/02/26 01:29:25;;;;;;;;;31.00;24.50;;;;;5.22;68.41;103100.28;5093586;27;45466;-71
2022/02/26 01:31:50;;;;;;;;;29.25;24.00;;;;;5.19;68.08;103101.09;5093019;27;45374;-71
2022/02/26 01:34:16;;;;;;;;;33.00;26.75;;;;;5.19;68.64;103108.03;5095101;27;46262;-71
2022/02/26 01:36:41;;;;;;;;;36.50;26.25;;;;;5.15;68.73;103111.44;5092771;27;45471;-71
2022/02/26 01:39:09;;;;;;;;;27.75;24.00;;;;;5.12;68.75;103111.41;5090344;27;45516;-71
2022/02/26 01:41:35;;;;;;;;;30.25;26.25;;;;;5.08;68.69;103107.88;5092857;27;45469;-71
2022/02/26 01:44:01;;;;;;;;;25.50;24.00;;;;;5.07;68.65;103111.31;5091943;27;46026;-71
2022/02/26 01:46:27;;;;;;;;;25.25;21.75;;;;;5.04;69.34;103106.03;5094737;27;45407;-71
2022/02/26 01:48:52;;;;;;;;;31.25;28.00;;;;;5.03;69.00;103104.28;5092685;27;45429;-71
2022/02/26 01:51:18;;;;;;;;;34.25;24.50;;;;;5.02;69.14;103105.16;5089961;27;45538;-71
2022/02/26 01:53:44;;;;;;;;;36.75;27.75;;;;;5.00;69.22;103105.97;5089722;27;45773;-71
2022/02/26 01:56:10;;;;;;;;;28.50;25.50;;;;;4.98;68.93;103106.81;5092443;27;45446;-71
2022/02/26 01:58:36;;;;;;;;;31.50;26.25;;;;;4.93;69.31;103105.84;5095753;27;45336;-71
2022/02/26 02:01:02;;;;;;;;;29.50;24.75;;;;;4.90;69.37;103108.38;5097026;27;45402;-71
2022/02/26 02:03:28;;;;;;;;;32.00;26.50;;;;;4.86;69.79;103109.19;5095915;27;45457;-71
2022/02/26 02:06:00;;;;;;;;;27.00;20.00;;;;;4.83;69.76;103105.66;5095908;27;45558;-71
2022/02/26 02:08:28;;;;;;;;;28.75;22.25;;;;;4.78;69.89;103102.09;5094437;27;45453;-71
2022/02/26 02:10:54;;;;;;;;;25.00;22.50;;;;;4.72;69.69;103093.31;5095827;27;45552;-71
2022/02/26 02:13:20;;;;;;;;;30.25;25.25;;;;;4.72;69.84;103110.66;5097953;27;45405;-71
2022/02/26 02:15:45;;;;;;;;;28.75;22.75;;;;;4.68;69.81;103114.06;5095843;27;45316;-71
2022/02/26 02:18:13;;;;;;;;;32.25;26.50;;;;;4.66;69.86;103111.44;5095917;27;45529;-71
2022/02/26 02:20:40;;;;;;;;;27.00;18.75;;;;;4.62;69.97;103108.72;5095939;27;45564;-71
2022/02/26 02:23:06;;;;;;;;;23.75;21.00;;;;;4.60;69.73;103113.03;5095848;27;45285;-71
2022/02/26 02:25:37;;;;;;;;;26.25;21.75;;;;;4.56;69.87;103108.59;5097634;27;45386;-71
2022/02/26 02:28:05;;;;;;;;;35.00;22.75;;;;;4.52;69.71;103109.38;5094963;27;45537;-71
2022/02/26 02:30:30;;;;;;;;;29.25;23.00;;;;;4.49;70.17;103110.22;5094198;27;45461;-71
2022/02/26 02:32:57;;;;;;;;;32.75;23.50;;;;;4.46;69.65;103115.34;5094384;27;45435;-70
2022/02/26 02:35:29;;;;;;;;;19.25;14.00;;;;;4.43;70.00;103110.94;5095722;27;46011;-71
2022/02/26 02:37:56;;;;;;;;;25.50;22.25;;;;;4.42;69.89;103105.72;5095656;27;45496;-70
2022/02/26 02:40:23;;;;;;;;;28.50;22.50;;;;;4.40;70.33;103102.22;5096061;27;45493;-71
2022/02/26 02:42:49;;;;;;;;;20.75;15.50;;;;;4.36;70.07;103109.06;5095582;27;47507;-70
2022/02/26 02:45:14;;;;;;;;;24.50;21.25;;;;;4.34;70.13;103102.09;5095038;27;45504;-70
2022/02/26 02:47:39;;;;;;;;;28.75;20.00;;;;;4.30;70.32;103103.75;5095568;27;45410;-70
2022/02/26 02:50:06;;;;;;;;;25.50;20.00;;;;;4.29;70.46;103095.91;5092729;27;45376;-71
2022/02/26 02:52:31;;;;;;;;;25.50;22.25;;;;;4.25;70.80;103094.09;5092926;27;46314;-70
2022/02/26 02:54:56;;;;;;;;;28.25;23.75;;;;;4.22;70.86;103084.47;5090513;27;53153;-71
2022/02/26 02:57:22;;;;;;;;;24.33;20.00;;;;;4.18;70.89;103082.69;5088618;27;45511;-71
2022/02/26 02:59:47;;;;;;;;;26.50;20.25;;;;;4.19;70.90;103092.22;5095406;27;45539;-71
2022/02/26 03:02:12;;;;;;;;;23.25;20.50;;;;;4.18;70.97;103093.09;5095405;27;45480;-71
2022/02/26 03:04:38;;;;;;;;;28.25;23.50;;;;;4.15;70.90;103093.00;5096824;27;45464;-71
2022/02/26 03:07:03;;;;;;;;;26.25;20.00;;;;;4.14;70.68;103086.06;5094453;27;45324;-71
2022/02/26 03:09:29;;;;;;;;;27.50;21.00;;;;;4.11;70.70;103086.84;5094420;27;45572;-71
2022/02/26 03:11:54;;;;;;;;;22.25;16.00;;;;;4.09;71.20;103085.06;5093716;27;45819;-71
2022/02/26 03:14:19;;;;;;;;;20.75;19.25;;;;;4.07;70.97;103082.44;5095354;27;45416;-71
2022/02/26 03:16:45;;;;;;;;;26.50;21.50;;;;;4.04;70.84;103079.78;5095914;27;45403;-71
2022/02/26 03:19:10;;;;;;;;;26.00;22.00;;;;;4.03;71.33;103074.53;5095574;27;45692;-71
2022/02/26 03:21:36;;;;;;;;;23.25;15.25;;;;;4.01;71.03;103074.47;5094872;27;46262;-71
2022/02/26 03:24:02;;;;;;;;;25.25;20.75;;;;;4.00;71.24;103074.47;5095054;27;45491;-71
2022/02/26 03:26:27;;;;;;;;;32.00;26.00;;;;;3.97;71.40;103067.47;5095176;27;45409;-71
2022/02/26 03:28:52;;;;;;;;;31.25;23.75;;;;;3.98;71.63;103068.34;5094430;27;45528;-71
2022/02/26 03:31:18;;;;;;;;;24.75;22.75;;;;;3.95;71.83;103071.75;5097257;27;45343;-71
2022/02/26 03:33:43;;;;;;;;;26.25;24.00;;;;;3.93;71.76;103071.72;5094260;27;45470;-71
2022/02/26 03:36:08;;;;;;;;;30.33;21.33;;;;;3.93;71.60;103070.84;5094558;27;45475;-71
2022/02/26 03:38:35;;;;;;;;;29.75;25.00;;;;;3.92;71.72;103066.50;5093982;27;45429;-70
2022/02/26 03:41:00;;;;;;;;;23.50;18.00;;;;;3.91;71.82;103072.53;5094494;27;46208;-70
2022/02/26 03:43:26;;;;;;;;;36.50;27.75;;;;;3.91;71.72;103080.34;5096694;27;45680;-70
2022/02/26 03:45:51;;;;;;;;;31.00;22.00;;;;;3.88;71.81;103075.97;5092358;27;45693;-70
2022/02/26 03:48:16;;;;;;;;;25.25;25.00;;;;;3.88;72.37;103077.69;5093629;27;45623;-70
2022/02/26 03:50:42;;;;;;;;;33.00;25.67;;;;;3.88;72.20;103075.09;5092409;27;45486;-70
2022/02/26 03:53:09;;;;;;;;;27.25;24.50;;;;;3.87;72.18;103068.13;5094648;27;45257;-70
2022/02/26 03:55:35;;;;;;;;;36.50;28.25;;;;;3.85;72.30;103070.66;5096606;27;45508;-70
2022/02/26 03:58:00;;;;;;;;;35.00;26.75;;;;;3.83;72.35;103071.50;5094077;27;45490;-70
2022/02/26 04:00:26;;;;;;;;;29.75;25.75;;;;;3.82;72.14;103072.34;5093718;27;45384;-70
2022/02/26 04:02:52;;;;;;;;;31.00;26.50;;;;;3.81;72.38;103075.75;5094008;27;45374;-70
2022/02/26 04:05:17;;;;;;;;;36.67;27.67;;;;;3.79;72.24;103073.13;5093271;27;45538;-70
2022/02/26 04:07:42;;;;;;;;;38.00;30.67;;;;;3.74;72.42;103081.69;5094723;27;45478;-70
2022/02/26 04:10:10;;;;;;;;;26.00;23.50;;;;;3.73;72.38;103087.75;5094942;27;47095;-70
2022/02/26 04:12:35;;;;;;;;;34.00;30.25;;;;;3.71;72.23;103092.91;5092786;27;45537;-70
2022/02/26 04:15:01;;;;;;;;;33.75;23.25;;;;;3.68;72.15;103092.81;5094231;27;45722;-70
2022/02/26 04:17:26;;;;;;;;;32.25;27.75;;;;;3.64;72.27;103088.38;5092878;27;45374;-70
2022/02/26 04:19:52;;;;;;;;;34.00;27.50;;;;;3.60;71.95;103083.94;5093716;27;46133;-71
2022/02/26 04:22:17;;;;;;;;;32.75;30.50;;;;;3.56;72.22;103085.63;5093737;27;45421;-70
2022/02/26 04:24:43;;;;;;;;;32.00;23.25;;;;;3.53;72.27;103100.25;5093783;27;45523;-70
2022/02/26 04:27:08;;;;;;;;;32.00;25.75;;;;;3.49;72.27;103093.22;5091519;27;45504;-70
2022/02/26 04:29:34;;;;;;;;;28.75;21.25;;;;;3.46;72.33;103091.44;5094279;27;46840;-70
2022/02/26 04:31:59;;;;;;;;;25.50;21.50;;;;;3.43;72.70;103093.97;5093052;27;45417;-70
2022/02/26 04:34:24;;;;;;;;;27.00;25.00;;;;;3.41;72.48;103095.66;5094418;27;53249;-70
2022/02/26 04:36:50;;;;;;;;;33.33;27.00;;;;;3.40;72.83;103105.19;5093551;27;47535;-70
2022/02/26 04:39:15;;;;;;;;;26.33;21.33;;;;;3.38;72.76;103112.03;5093246;27;50779;-70
2022/02/26 04:41:40;;;;;;;;;31.75;23.00;;;;;3.34;72.57;103107.63;5091181;27;49914;-70
2022/02/26 04:44:06;;;;;;;;;32.33;25.67;;;;;3.31;72.63;103101.47;5094278;27;45617;-70
2022/02/26 04:46:31;;;;;;;;;24.75;19.00;;;;;3.29;73.20;103105.72;5091073;27;45336;-70
2022/02/26 04:48:57;;;;;;;;;24.75;22.00;;;;;3.25;73.00;103104.78;5093265;27;46314;-70
2022/02/26 04:51:22;;;;;;;;;33.75;23.75;;;;;3.24;73.12;103112.56;5093023;27;46925;-70
2022/02/26 04:53:47;;;;;;;;;27.50;23.25;;;;;3.22;73.05;103112.50;5092603;27;45468;-70
2022/02/26 04:56:13;;;;;;;;;24.25;23.25;;;;;3.20;72.80;103103.78;5093746;27;45494;-71
2022/02/26 04:58:38;;;;;;;;;27.25;21.25;;;;;3.19;73.27;103104.66;5094397;27;46076;-70
2022/02/26 05:01:04;;;;;;;;;38.50;22.50;;;;;3.18;73.73;103107.19;5093733;27;45370;-71
2022/02/26 05:03:30;;;;;;;;;27.50;23.75;;;;;3.18;73.60;103107.19;5094473;27;45651;-70
2022/02/26 05:05:55;;;;;;;;;28.00;22.00;;;;;3.18;73.91;103101.97;5091429;27;45452;-70
2022/02/26 05:08:20;;;;;;;;;27.00;24.25;;;;;3.17;73.46;103103.69;5092599;27;46135;-70
2022/02/26 05:10:46;;;;;;;;;35.25;22.25;;;;;3.17;73.33;103116.69;5093970;27;45587;-70
2022/02/26 05:13:11;;;;;;;;;26.75;25.50;;;;;3.16;73.80;103103.69;5094609;27;45820;-70
2022/02/26 05:15:36;;;;;;;;;36.00;27.00;;;;;3.14;73.63;103101.91;5092244;27;45494;-70
2022/02/26 05:18:02;;;;;;;;;29.00;24.25;;;;;3.14;73.52;103098.44;5093390;27;46900;-71
2022/02/26 05:20:27;;;;;;;;;31.50;27.50;;;;;3.12;73.86;103105.31;5093154;27;45884;-71
2022/02/26 05:22:53;;;;;;;;;27.75;25.00;;;;;3.08;73.69;103104.38;5093068;27;47036;-71
2022/02/26 05:25:18;;;;;;;;;31.75;26.50;;;;;3.09;73.81;103111.31;5094898;27;45407;-71
2022/02/26 05:27:44;;;;;;;;;32.00;25.00;;;;;3.07;73.29;103100.00;5092002;27;45548;-71
2022/02/26 05:30:12;;;;;;;;;30.25;27.75;;;;;3.06;73.66;103102.56;5092712;27;45585;-71
2022/02/26 05:32:39;;;;;;;;;31.25;25.50;;;;;3.02;74.35;103099.00;5093196;27;45327;-71
2022/02/26 05:35:06;;;;;;;;;36.75;31.75;;;;;3.05;74.03;103104.28;5090057;27;45430;-71
2022/02/26 05:37:31;;;;;;;;;32.50;28.00;;;;;3.04;74.28;103097.31;5097507;27;46474;-71
2022/02/26 05:39:56;;;;;;;;;36.00;27.00;;;;;3.01;74.11;103099.84;5097433;27;45545;-71
2022/02/26 05:42:22;;;;;;;;;33.50;26.00;;;;;3.00;73.90;103110.19;5095273;27;45375;-71
2022/02/26 05:44:47;;;;;;;;;31.50;28.50;;;;;2.97;73.85;103104.91;5094368;27;45416;-71
2022/02/26 05:47:13;;;;;;;;;35.75;29.00;;;;;2.94;73.91;103110.91;5094604;27;46057;-71
2022/02/26 05:49:39;;;;;;;;;36.50;27.75;;;;;2.93;74.10;103101.38;5097271;27;45296;-71
2022/02/26 05:52:05;;;;;;;;;37.25;29.00;;;;;2.91;73.92;103103.03;5097035;27;45323;-71
2022/02/26 05:54:30;;;;;;;;;43.00;30.75;;;;;2.91;74.09;103102.16;5095347;27;45411;-71
2022/02/26 05:56:55;;;;;;;;;36.75;29.75;;;;;2.89;74.13;103102.13;5095704;27;46290;-71
2022/02/26 05:59:21;;;;;;;;;33.00;30.33;;;;;2.90;74.07;103103.00;5094737;27;48259;-71
2022/02/26 06:01:46;;;;;;;;;36.00;26.75;;;;;2.88;74.10;103105.56;5096850;27;45534;-71
2022/02/26 06:04:11;;;;;;;;;30.00;26.67;;;;;2.87;74.00;103107.28;5097033;27;45454;-71
2022/02/26 06:06:37;;;;;;;;;30.00;26.00;;;;;2.86;74.12;103104.63;5095489;27;55135;-71
2022/02/26 06:09:02;;;;;;;;;38.25;33.00;;;;;2.84;74.54;103109.78;5094658;27;45522;-71
2022/02/26 06:11:28;;;;;;;;;42.25;31.75;;;;;2.84;74.40;103106.31;5095805;27;45767;-71
2022/02/26 06:13:53;;;;;;;;;43.75;35.00;;;;;2.83;74.73;103114.94;5095205;27;45535;-71
2022/02/26 06:16:19;;;;;;;;;31.75;28.75;;;;;2.82;74.46;103121.84;5097495;27;46986;-71
2022/02/26 06:18:45;;;;;;;;;45.75;36.00;;;;;2.81;74.46;103114.88;5095582;27;45720;-71
2022/02/26 06:21:10;;;;;;;;;40.25;30.25;;;;;2.79;74.24;103113.09;5096734;27;45347;-71
2022/02/26 06:23:36;;;;;;;;;47.50;36.50;;;;;2.80;74.49;103125.22;5096549;27;45359;-71
2022/02/26 06:26:01;;;;;;;;;36.75;30.75;;;;;2.79;74.62;103133.88;5094465;27;45410;-71
2022/02/26 06:28:26;;;;;;;;;36.25;28.75;;;;;2.79;74.56;103128.69;5096586;27;45439;-71
2022/02/26 06:30:52;;;;;;;;;34.00;29.67;;;;;2.78;74.44;103124.31;5095307;27;45545;-71
2022/02/26 06:33:17;;;;;;;;;40.33;31.67;;;;;2.76;74.46;103120.78;5095627;27;46040;-71
2022/02/26 06:35:43;;;;;;;;;33.50;28.00;;;;;2.77;74.43;103127.78;5094861;27;47242;-72
2022/02/26 06:38:10;;;;;;;;;39.00;28.25;;;;;2.77;74.64;103126.03;5090883;27;45737;-71
2022/02/26 06:40:36;;;;;;;;;34.25;30.25;;;;;2.79;74.77;103131.28;5096769;27;45330;-71
2022/02/26 06:43:01;;;;;;;;;38.75;28.00;;;;;2.80;74.84;103120.91;5094063;27;45606;-71
2022/02/26 06:45:27;;;;;;;;;29.75;26.75;;;;;2.82;74.49;103120.97;5094615;27;45821;-71
2022/02/26 06:47:52;;;;;;;;;42.75;32.25;;;;;2.83;74.70;103120.13;5094555;27;45979;-71
2022/02/26 06:50:17;;;;;;;;;37.00;29.33;;;;;2.84;74.64;103130.56;5095506;27;45469;-71
2022/02/26 06:52:43;;;;;;;;;30.25;26.00;;;;;2.86;74.61;103128.00;5095841;27;45443;-71
2022/02/26 06:55:09;;;;;;;;;26.25;23.50;;;;;2.90;74.66;103119.44;5096052;27;46238;-71
2022/02/26 06:57:34;;;;;;;;;26.50;23.25;;;;;2.92;74.65;103119.47;5094243;27;45525;-71
2022/02/26 06:59:59;;;;;;;;;18.00;10.25;;;;;2.91;74.86;103121.22;5094019;27;45348;-71
2022/02/26 07:02:25;;;;;;;;;38.50;31.25;;;;;3.00;74.82;103123.19;5094808;27;46637;-71
2022/02/26 07:04:50;;;;;;;;;33.25;26.50;;;;;3.04;74.70;103128.50;5095548;27;46318;-71
2022/02/26 07:07:15;;;;;;;;;39.67;31.00;;;;;3.09;74.88;103123.44;5094498;27;46146;-71
2022/02/26 07:09:41;;;;;;;;;35.25;26.25;;;;;3.19;74.99;103127.16;5094587;27;45436;-71
2022/02/26 07:12:07;;;;;;;;;35.67;27.33;;;;;3.25;75.00;103125.59;5094428;27;46873;-70
2022/02/26 07:14:33;;;;;;;;;37.75;25.25;;;;;3.31;74.73;103119.66;5095346;27;47233;-71
2022/02/26 07:16:58;;;;;;;;;32.25;28.25;;;;;3.40;74.90;103125.09;5094479;27;45302;-71
2022/02/26 07:19:23;;;;;;;;;35.00;28.67;;;;;3.51;74.93;103131.44;5096956;27;45639;-71
2022/02/26 07:21:48;;;;;;;;;31.00;25.33;;;;;3.64;74.94;103119.59;5094904;27;45319;-71
2022/02/26 07:24:14;;;;;;;;;31.50;26.25;;;;;3.85;75.38;103114.00;5094850;27;46208;-70
2022/02/26 07:26:40;;;;;;;;;29.75;28.25;;;;;4.29;75.43;103125.41;5093771;27;45631;-71
2022/02/26 07:29:05;;;;;;;;;28.00;22.00;;;;;4.66;74.54;103123.56;5094628;27;45332;-71
2022/02/26 07:31:31;;;;;;;;;39.00;30.00;;;;;5.10;74.17;103120.91;5096762;27;45552;-71
2022/02/26 07:33:56;;;;;;;;;29.00;21.75;;;;;5.62;73.39;103120.06;5094225;27;46871;-72
2022/02/26 07:36:22;;;;;;;;;23.00;21.00;;;;;6.56;73.33;103117.03;5094264;27;45352;-71
2022/02/26 07:38:47;;;;;;;;;24.50;19.75;;;;;7.34;71.46;103120.44;5093402;27;46781;-70
2022/02/26 07:41:13;;;;;;;;;23.25;17.25;;;;;8.02;69.17;103119.19;5093630;27;45602;-71
2022/02/26 07:43:38;;;;;;;;;25.50;21.25;;;;;8.25;67.81;103114.09;5096327;27;46137;-70
2022/02/26 07:46:07;;;;;;;;;24.00;20.00;;;;;8.75;67.29;103118.66;5093098;27;45464;-70
2022/02/26 07:48:33;;;;;;;;;26.50;20.25;;;;;9.59;66.86;103113.50;5093527;27;45708;-71
2022/02/26 07:50:59;;;;;;;;;20.25;14.00;;;;;11.13;65.88;103117.31;5093319;27;45632;-70
2022/02/26 07:53:25;;;;;;;;;19.00;17.75;;;;;12.69;64.03;103116.56;5094382;27;46068;-71
2022/02/26 07:55:50;;;;;;;;;22.25;17.25;;;;;14.07;61.13;103114.28;5092958;27;45287;-71
2022/02/26 07:58:16;;;;;;;;;15.25;13.75;;;;;15.24;59.01;103116.13;5093081;27;45492;-70
2022/02/26 08:00:41;;;;;;;;;16.75;16.50;;;;;16.70;57.01;103120.97;5095075;27;45268;-69
2022/02/26 08:03:07;;;;;;;;;18.25;12.50;;;;;18.22;54.83;103111.47;5093860;27;47156;-70
2022/02/26 08:05:32;;;;;;;;;16.25;15.00;;;;;19.67;52.83;103105.59;5093854;27;45427;-71
2022/02/26 08:07:58;;;;;;;;;22.50;14.75;;;;;20.99;50.12;103103.06;5093204;27;47211;-71
2022/02/26 08:10:25;;;;;;;;;15.00;15.00;;;;;22.26;48.00;103106.31;5095380;27;45327;-71
2022/02/26 08:12:52;;;;;;;;;14.25;13.00;;;;;23.47;45.21;103099.38;5093380;27;45990;-70
2022/02/26 08:15:22;;;;;;;;;12.25;12.25;;;;;24.47;44.76;103101.19;5092234;27;45757;-71
2022/02/26 08:17:48;;;;;;;;;13.25;12.75;;;;;25.48;42.31;103097.19;5092743;27;45518;-70
2022/02/26 08:20:15;;;;;;;;;16.00;12.00;;;;;26.33;41.22;103107.41;5092419;27;45640;-70
2022/02/26 08:22:40;;;;;;;;;15.50;13.50;;;;;27.12;39.33;103108.78;5094696;27;46430;-70
2022/02/26 08:25:08;;;;;;;;;17.00;14.25;;;;;27.92;38.29;103107.00;5093093;27;45428;-71
2022/02/26 08:27:33;;;;;;;;;14.50;13.50;;;;;28.45;37.24;103103.69;5094198;27;45284;-72
2022/02/26 08:29:58;;;;;;;;;11.00;10.50;;;;;28.91;36.11;103103.44;5093570;27;45719;-71
2022/02/26 08:32:24;;;;;;;;;16.50;11.50;;;;;29.47;34.85;103110.47;5088295;27;46063;-71
2022/02/26 08:34:49;;;;;;;;;11.50;10.25;;;;;29.90;33.44;103111.19;5091309;27;45475;-71
2022/02/26 08:37:15;;;;;;;;;12.75;11.00;;;;;30.26;32.96;103108.94;5094702;27;45471;-71
2022/02/26 08:39:40;;;;;;;;;10.00;9.25;;;;;30.83;32.76;103104.66;5091740;27;45377;-72
2022/02/26 08:42:06;;;;;;;;;12.50;8.50;;;;;31.25;31.54;103101.63;5090406;27;46164;-72
2022/02/26 08:44:32;;;;;;;;;12.00;10.50;;;;;31.58;30.76;103107.59;5089883;27;45873;-71
2022/02/26 08:46:58;;;;;;;;;13.50;12.75;;;;;31.85;29.01;103107.72;5095523;27;45695;-73
2022/02/26 08:49:24;;;;;;;;;10.25;10.25;;;;;31.33;29.50;103096.38;5097372;27;45464;-72
2022/02/26 08:51:49;;;;;;;;;6.00;6.00;;;;;31.78;28.80;103101.09;5093647;27;47895;-72
2022/02/26 08:54:15;;;;;;;;;12.00;9.50;;;;;32.51;27.70;103105.81;5094955;27;45429;-72
2022/02/26 08:56:40;;;;;;;;;6.25;4.00;;;;;33.10;28.13;103107.09;5092018;27;45390;-72
2022/02/26 08:59:06;;;;;;;;;9.00;6.00;;;;;33.78;27.62;103101.84;5098608;27;45354;-73
2022/02/26 09:01:31;;;;;;;;;8.25;4.50;;;;;34.47;26.83;103105.41;5090932;27;46329;-72
2022/02/26 09:03:57;;;;;;;;;8.00;7.00;;;;;34.98;26.85;103089.81;5102285;27;45446;-72
2022/02/26 09:06:24;;;;;;;;;7.50;6.50;;;;;34.95;25.04;103101.94;5100817;27;45838;-72
2022/02/26 09:08:50;;;;;;;;;4.50;4.50;;;;;34.60;24.23;103108.50;5093335;27;45386;-73
2022/02/26 09:11:15;;;;;;;;;6.25;5.00;;;;;34.60;25.39;103104.94;5090372;27;47094;-72
2022/02/26 09:13:42;;;;;;;;;7.25;7.25;;;;;34.91;24.25;103102.41;5095353;27;45704;-73
2022/02/26 09:16:09;;;;;;;;;6.00;6.00;;;;;35.25;23.68;103099.53;5095532;27;46167;-73
2022/02/26 09:18:34;;;;;;;;;7.75;6.75;;;;;35.52;23.25;103107.38;5090793;27;45475;-73
2022/02/26 09:21:01;;;;;;;;;9.75;5.75;;;;;35.73;23.19;103097.75;5097157;27;45426;-73
2022/02/26 09:23:28;;;;;;;;;7.50;6.50;;;;;35.63;23.12;103097.97;5097668;27;45502;-72
2022/02/26 09:25:54;;;;;;;;;10.00;7.00;;;;;36.01;22.97;103100.94;5095446;27;48101;-72
2022/02/26 09:28:19;;;;;;;;;38.75;33.75;;;;;36.09;22.04;103102.78;5097678;27;45351;-72
2022/02/26 09:30:45;;;;;;;;;8.75;6.00;;;;;35.69;22.35;103096.41;5098037;27;45991;-73
2022/02/26 09:33:10;;;;;;;;;4.25;3.75;;;;;35.57;21.86;103095.94;5097393;27;45537;-71
2022/02/26 09:35:36;;;;;;;;;6.50;6.50;;;;;35.73;21.77;103084.94;5095953;27;45490;-71
2022/02/26 09:38:01;;;;;;;;;8.75;6.00;;;;;35.74;21.50;103088.53;5091929;27;45592;-73
2022/02/26 09:40:26;;;;;;;;;7.00;6.50;;;;;36.25;22.22;103083.53;5097184;27;45455;-71
2022/02/26 09:42:52;;;;;;;;;6.00;5.75;;;;;36.84;21.41;103090.19;5096538;27;45413;-72
2022/02/26 09:45:17;;;;;;;;;6.00;4.00;;;;;37.37;20.80;103084.78;5098727;27;45525;-71
2022/02/26 09:47:43;;;;;;;;;4.00;3.50;;;;;37.79;19.93;103083.28;5098904;27;45481;-73
2022/02/26 09:50:09;;;;;;;;;5.75;4.75;;;;;37.71;20.06;103084.25;5092884;27;46528;-72
2022/02/26 09:52:42;;;;;;;;;4.50;4.25;;;;;37.49;19.81;103091.53;5092727;27;45331;-71
2022/02/26 09:55:09;;;;;;;;;59.75;45.00;;;;;37.10;20.05;103084.31;5099036;27;45392;-72
2022/02/26 09:57:35;;;;;;;;;7.25;6.00;;;;;36.83;19.80;103088.47;5092805;27;45365;-72
2022/02/26 10:00:00;;;;;;;;;6.50;5.00;;;;;36.40;19.74;103084.47;5092540;27;46226;-72
2022/02/26 10:02:35;;;;;;;;;4.50;4.50;;;;;35.74;19.72;103083.03;5092996;27;45442;-72
2022/02/26 10:05:02;;;;;;;;;4.75;3.25;;;;;35.19;19.92;103084.69;5092083;27;45331;-71
2022/02/26 10:07:32;;;;;;;;;7.25;4.00;;;;;34.73;19.68;103094.38;5094834;27;45523;-72
2022/02/26 10:09:57;;;;;;;;;5.75;3.25;;;;;33.77;20.29;103075.56;5092961;27;45423;-72
2022/02/26 10:12:28;;;;;;;;;8.50;5.00;;;;;33.09;21.64;103076.28;5092695;27;45435;-71
2022/02/26 10:15:01;;;;;;;;;3.00;3.00;;;;;32.12;20.62;103084.25;5091475;27;46988;-72
2022/02/26 10:17:28;;;;;;;;;6.25;4.00;;;;;31.35;21.03;103080.78;5079514;27;45455;-71
2022/02/26 10:20:01;;;;;;;;;5.50;4.00;;;;;30.85;21.82;103074.63;5093931;27;46217;-72
2022/02/26 10:22:31;;;;;;;;;5.00;3.00;;;;;30.21;21.93;103073.22;5097222;27;45680;-71
2022/02/26 10:25:07;;;;;;;;;1.75;1.75;;;;;29.88;22.40;103074.38;5096045;27;45338;-72
2022/02/26 10:27:32;;;;;;;;;3.00;3.00;;;;;29.30;22.82;103074.00;5095808;27;45544;-72
2022/02/26 10:29:58;;;;;;;;;1.25;1.25;;;;;28.67;22.30;103073.03;5095965;27;45965;-72
2022/02/26 10:32:23;;;;;;;;;2.75;2.75;;;;;28.24;22.47;103068.41;5095978;27;45493;-71
2022/02/26 10:34:48;;;;;;;;;8.00;4.50;;;;;27.58;22.92;103057.47;5097263;27;45493;-71
2022/02/26 10:37:19;;;;;;;;;6.00;4.50;;;;;26.94;23.32;103059.75;5095630;27;45411;-71
2022/02/26 10:39:48;;;;;;;;;3.00;3.00;;;;;26.26;23.78;103064.72;5095741;27;46126;-72
2022/02/26 10:42:20;;;;;;;;;8.00;4.00;;;;;25.42;24.04;103065.31;5105865;27;45466;-71
2022/02/26 10:44:59;;;;;;;;;5.75;3.75;;;;;24.60;25.07;103066.31;5096239;27;45410;-72
2022/02/26 10:47:32;;;;;;;;;4.25;3.25;;;;;23.91;25.44;103059.13;5095898;27;45308;-71
2022/02/26 10:49:57;;;;;;;;;3.50;2.00;;;;;23.41;25.61;103052.31;5095407;27;46139;-71
2022/02/26 10:52:30;;;;;;;;;5.00;3.00;;;;;23.01;25.98;103053.84;5097834;27;45746;-71
2022/02/26 10:54:55;;;;;;;;;3.00;2.50;;;;;22.56;26.78;103050.16;5094321;27;45378;-71
2022/02/26 10:57:21;;;;;;;;;5.00;4.00;;;;;22.30;26.87;103051.63;5093974;27;45489;-71
2022/02/26 10:59:53;;;;;;;;;3.00;3.00;;;;;21.90;26.63;103053.78;5094530;27;45533;-72
2022/02/26 11:02:25;;;;;;;;;5.25;3.50;;;;;21.55;27.46;103052.97;5095596;27;45331;-71
2022/02/26 11:04:53;;;;;;;;;4.75;3.50;;;;;21.42;27.41;103044.75;5094961;27;45493;-71
2022/02/26 11:07:20;;;;;;;;;3.75;3.00;;;;;21.16;27.78;103054.06;5097571;27;45363;-71
2022/02/26 11:09:47;;;;;;;;;3.50;3.50;;;;;20.82;27.82;103044.19;5095222;27;45529;-71
2022/02/26 11:12:16;;;;;;;;;4.25;3.00;;;;;20.48;28.29;103045.00;5095360;27;45462;-71